sensor_id;sensor_type;location;lat;lon;timestamp;temperature;humidity
5850;DHT22;2951;47.712;9.400;2022-12-08T00:02:07;1.30;99.90
5850;DHT22;2951;47.712;9.400;2022-12-08T00:04:34;1.30;99.90
5850;DHT22;2951;47.712;9.400;2022-12-08T00:07:21;1.30;99.90
5850;DHT22;2951;47.712;9.400;2022-12-08T00:10:06;1.30;99.90
5850;DHT22;2951;47.712;9.400;2022-12-08T00:12:53;1.40;99.90
5850;DHT22;2951;47.712;9.400;2022-12-08T00:15:20;1.30;99.90
5850;DHT22;2951;47.712;9.400;2022-12-08T00:17:47;1.30;99.90
5850;DHT22;2951;47.712;9.400;2022-12-08T00:20:13;1.40;99.90
5850;DHT22;2951;47.712;9.400;2022-12-08T00:22:40;1.40;99.90
5850;DHT22;2951;47.712;9.400;2022-12-08T00:25:07;1.30;99.90
5850;DHT22;2951;47.712;9.400;2022-12-08T00:27:34;1.30;99.90
5850;DHT22;2951;47.712;9.400;2022-12-08T00:30:00;1.20;99.90
5850;DHT22;2951;47.712;9.400;2022-12-08T00:32:27;1.30;99.90
5850;DHT22;2951;47.712;9.400;2022-12-08T00:34:54;1.20;99.90
5850;DHT22;2951;47.712;9.400;2022-12-08T00:37:20;1.30;99.90
5850;DHT22;2951;47.712;9.400;2022-12-08T00:39:47;1.30;99.90
5850;DHT22;2951;47.712;9.400;2022-12-08T00:42:14;1.20;99.90
5850;DHT22;2951;47.712;9.400;2022-12-08T00:44:41;1.20;99.90
5850;DHT22;2951;47.712;9.400;2022-12-08T00:47:08;1.30;99.90
5850;DHT22;2951;47.712;9.400;2022-12-08T00:49:35;1.20;99.90
5850;DHT22;2951;47.712;9.400;2022-12-08T00:52:02;1.20;99.90
5850;DHT22;2951;47.712;9.400;2022-12-08T00:54:28;1.30;99.90
5850;DHT22;2951;47.712;9.400;2022-12-08T00:56:55;1.30;99.90
5850;DHT22;2951;47.712;9.400;2022-12-08T00:59:22;1.30;99.90
5850;DHT22;2951;47.712;9.400;2022-12-08T01:01:48;1.30;99.90
5850;DHT22;2951;47.712;9.400;2022-12-08T01:04:16;1.30;99.90
5850;DHT22;2951;47.712;9.400;2022-12-08T01:06:43;1.30;99.90
5850;DHT22;2951;47.712;9.400;2022-12-08T01:09:11;1.20;99.90
5850;DHT22;2951;47.712;9.400;2022-12-08T01:11:38;1.30;99.90
5850;DHT22;2951;47.712;9.400;2022-12-08T01:14:05;1.30;99.90
5850;DHT22;2951;47.712;9.400;2022-12-08T01:16:33;1.40;99.90
5850;DHT22;2951;47.712;9.400;2022-12-08T01:18:59;1.30;99.90
5850;DHT22;2951;47.712;9.400;2022-12-08T01:21:26;1.30;99.90
5850;DHT22;2951;47.712;9.400;2022-12-08T01:23:57;1.30;99.90
5850;DHT22;2951;47.712;9.400;2022-12-08T01:26:24;1.40;99.90
5850;DHT22;2951;47.712;9.400;2022-12-08T01:28:51;1.40;99.90
5850;DHT22;2951;47.712;9.400;2022-12-08T01:31:18;1.20;99.90
5850;DHT22;2951;47.712;9.400;2022-12-08T01:33:46;1.20;99.90
5850;DHT22;2951;47.712;9.400;2022-12-08T01:36:22;1.20;99.90
5850;DHT22;2951;47.712;9.400;2022-12-08T01:38:49;1.30;99.90
5850;DHT22;2951;47.712;9.400;2022-12-08T01:41:17;1.40;99.90
5850;DHT22;2951;47.712;9.400;2022-12-08T01:43:45;1.40;99.90
5850;DHT22;2951;47.712;9.400;2022-12-08T01:46:15;1.30;99.90
5850;DHT22;2951;47.712;9.400;2022-12-08T01:48:41;1.20;99.90
5850;DHT22;2951;47.712;9.400;2022-12-08T01:51:08;1.20;99.90
5850;DHT22;2951;47.712;9.400;2022-12-08T01:53:35;1.20;99.90
5850;DHT22;2951;47.712;9.400;2022-12-08T01:56:04;1.20;99.90
5850;DHT22;2951;47.712;9.400;2022-12-08T01:58:37;1.20;99.90
5850;DHT22;2951;47.712;9.400;2022-12-08T02:01:05;1.10;99.90
5850;DHT22;2951;47.712;9.400;2022-12-08T02:06:02;1.20;99.90
5850;DHT22;2951;47.712;9.400;2022-12-08T02:08:29;1.30;99.90
5850;DHT22;2951;47.712;9.400;2022-12-08T02:10:56;1.40;99.90
5850;DHT22;2951;47.712;9.400;2022-12-08T02:13:22;1.30;99.90
5850;DHT22;2951;47.712;9.400;2022-12-08T02:21:19;1.30;99.90
5850;DHT22;2951;47.712;9.400;2022-12-08T02:23:57;1.40;99.90
5850;DHT22;2951;47.712;9.400;2022-12-08T02:39:47;1.20;99.90
5850;DHT22;2951;47.712;9.400;2022-12-08T02:47:14;1.20;99.90
5850;DHT22;2951;47.712;9.400;2022-12-08T02:49:42;1.20;99.90
5850;DHT22;2951;47.712;9.400;2022-12-08T02:54:46;1.30;99.90
5850;DHT22;2951;47.712;9.400;2022-12-08T03:00:06;1.20;99.90
5850;DHT22;2951;47.712;9.400;2022-12-08T03:05:16;1.30;99.90
5850;DHT22;2951;47.712;9.400;2022-12-08T03:07:46;1.40;99.90
5850;DHT22;2951;47.712;9.400;2022-12-08T03:10:18;1.40;99.90
5850;DHT22;2951;47.712;9.400;2022-12-08T03:12:48;1.50;99.90
5850;DHT22;2951;47.712;9.400;2022-12-08T03:15:16;1.50;99.90
5850;DHT22;2951;47.712;9.400;2022-12-08T03:17:48;1.50;99.90
5850;DHT22;2951;47.712;9.400;2022-12-08T03:20:21;1.50;99.90
5850;DHT22;2951;47.712;9.400;2022-12-08T03:22:49;1.60;99.90
5850;DHT22;2951;47.712;9.400;2022-12-08T03:25:18;1.60;99.90
5850;DHT22;2951;47.712;9.400;2022-12-08T03:27:46;1.60;99.90
5850;DHT22;2951;47.712;9.400;2022-12-08T03:30:13;1.70;99.90
5850;DHT22;2951;47.712;9.400;2022-12-08T03:35:08;1.50;99.90
5850;DHT22;2951;47.712;9.400;2022-12-08T03:37:37;1.30;99.90
5850;DHT22;2951;47.712;9.400;2022-12-08T03:40:04;1.30;99.90
5850;DHT22;2951;47.712;9.400;2022-12-08T03:42:31;1.20;99.90
5850;DHT22;2951;47.712;9.400;2022-12-08T03:44:58;1.20;99.90
5850;DHT22;2951;47.712;9.400;2022-12-08T03:47:25;1.30;99.90
5850;DHT22;2951;47.712;9.400;2022-12-08T03:49:52;1.30;99.90
5850;DHT22;2951;47.712;9.400;2022-12-08T03:52:18;1.30;99.90
5850;DHT22;2951;47.712;9.400;2022-12-08T03:54:45;1.40;99.90
5850;DHT22;2951;47.712;9.400;2022-12-08T03:57:12;1.40;99.90
5850;DHT22;2951;47.712;9.400;2022-12-08T03:59:38;1.40;99.90
5850;DHT22;2951;47.712;9.400;2022-12-08T04:02:05;1.40;99.90
5850;DHT22;2951;47.712;9.400;2022-12-08T04:04:32;1.50;99.90
5850;DHT22;2951;47.712;9.400;2022-12-08T04:06:58;1.50;99.90
5850;DHT22;2951;47.712;9.400;2022-12-08T04:09:25;1.50;99.90
5850;DHT22;2951;47.712;9.400;2022-12-08T04:11:52;1.50;99.90
5850;DHT22;2951;47.712;9.400;2022-12-08T04:14:19;1.50;99.90
5850;DHT22;2951;47.712;9.400;2022-12-08T04:16:45;1.50;99.90
5850;DHT22;2951;47.712;9.400;2022-12-08T04:19:12;1.50;99.90
5850;DHT22;2951;47.712;9.400;2022-12-08T04:21:39;1.50;99.90
5850;DHT22;2951;47.712;9.400;2022-12-08T04:24:05;1.60;99.90
5850;DHT22;2951;47.712;9.400;2022-12-08T04:26:32;1.60;99.90
5850;DHT22;2951;47.712;9.400;2022-12-08T04:28:59;1.60;99.90
5850;DHT22;2951;47.712;9.400;2022-12-08T04:31:25;1.60;99.90
5850;DHT22;2951;47.712;9.400;2022-12-08T04:33:52;1.60;99.90
5850;DHT22;2951;47.712;9.400;2022-12-08T04:36:19;1.60;99.90
5850;DHT22;2951;47.712;9.400;2022-12-08T04:38:46;1.60;99.90
5850;DHT22;2951;47.712;9.400;2022-12-08T04:41:12;1.60;99.90
5850;DHT22;2951;47.712;9.400;2022-12-08T04:43:39;1.60;99.90
5850;DHT22;2951;47.712;9.400;2022-12-08T04:46:07;1.50;99.90
5850;DHT22;2951;47.712;9.400;2022-12-08T04:48:35;1.50;99.90
5850;DHT22;2951;47.712;9.400;2022-12-08T04:51:02;1.40;99.90
5850;DHT22;2951;47.712;9.400;2022-12-08T04:53:29;1.40;99.90
5850;DHT22;2951;47.712;9.400;2022-12-08T04:55:55;1.50;99.90
5850;DHT22;2951;47.712;9.400;2022-12-08T04:58:22;1.60;99.90
5850;DHT22;2951;47.712;9.400;2022-12-08T05:00:49;1.60;99.90
5850;DHT22;2951;47.712;9.400;2022-12-08T05:03:16;1.60;99.90
5850;DHT22;2951;47.712;9.400;2022-12-08T05:05:42;1.70;99.90
5850;DHT22;2951;47.712;9.400;2022-12-08T05:08:09;1.60;99.90
5850;DHT22;2951;47.712;9.400;2022-12-08T05:10:36;1.70;99.90
5850;DHT22;2951;47.712;9.400;2022-12-08T05:13:03;1.60;99.90
5850;DHT22;2951;47.712;9.400;2022-12-08T05:15:30;1.70;99.90
5850;DHT22;2951;47.712;9.400;2022-12-08T05:17:56;1.60;99.90
5850;DHT22;2951;47.712;9.400;2022-12-08T05:20:23;1.60;99.90
5850;DHT22;2951;47.712;9.400;2022-12-08T05:22:49;1.60;99.90
5850;DHT22;2951;47.712;9.400;2022-12-08T05:25:16;1.60;99.90
5850;DHT22;2951;47.712;9.400;2022-12-08T05:27:43;1.50;99.90
5850;DHT22;2951;47.712;9.400;2022-12-08T05:30:09;1.50;99.90
5850;DHT22;2951;47.712;9.400;2022-12-08T05:32:36;1.50;99.90
5850;DHT22;2951;47.712;9.400;2022-12-08T05:35:03;1.50;99.90
5850;DHT22;2951;47.712;9.400;2022-12-08T05:37:30;1.50;99.90
5850;DHT22;2951;47.712;9.400;2022-12-08T05:39:56;1.60;99.90
5850;DHT22;2951;47.712;9.400;2022-12-08T05:42:23;1.60;99.90
5850;DHT22;2951;47.712;9.400;2022-12-08T05:44:50;1.60;99.90
5850;DHT22;2951;47.712;9.400;2022-12-08T05:47:17;1.60;99.90
5850;DHT22;2951;47.712;9.400;2022-12-08T05:49:45;1.60;99.90
5850;DHT22;2951;47.712;9.400;2022-12-08T05:52:12;1.60;99.90
5850;DHT22;2951;47.712;9.400;2022-12-08T05:54:38;1.50;99.90
5850;DHT22;2951;47.712;9.400;2022-12-08T05:57:05;1.50;99.90
5850;DHT22;2951;47.712;9.400;2022-12-08T05:59:32;1.50;99.90
5850;DHT22;2951;47.712;9.400;2022-12-08T06:01:58;1.50;99.90
5850;DHT22;2951;47.712;9.400;2022-12-08T06:04:25;1.60;99.90
5850;DHT22;2951;47.712;9.400;2022-12-08T06:06:52;1.60;99.90
5850;DHT22;2951;47.712;9.400;2022-12-08T06:09:19;1.60;99.90
5850;DHT22;2951;47.712;9.400;2022-12-08T06:11:45;1.60;99.90
5850;DHT22;2951;47.712;9.400;2022-12-08T06:14:12;1.60;99.90
5850;DHT22;2951;47.712;9.400;2022-12-08T06:16:39;1.60;99.90
5850;DHT22;2951;47.712;9.400;2022-12-08T06:19:06;1.70;99.90
5850;DHT22;2951;47.712;9.400;2022-12-08T06:21:32;1.70;99.90
5850;DHT22;2951;47.712;9.400;2022-12-08T06:23:59;1.70;99.90
5850;DHT22;2951;47.712;9.400;2022-12-08T06:26:26;1.70;99.90
5850;DHT22;2951;47.712;9.400;2022-12-08T06:28:52;1.60;99.90
5850;DHT22;2951;47.712;9.400;2022-12-08T06:31:23;1.70;99.90
5850;DHT22;2951;47.712;9.400;2022-12-08T06:33:50;1.70;99.90
5850;DHT22;2951;47.712;9.400;2022-12-08T06:36:18;1.70;99.90
5850;DHT22;2951;47.712;9.400;2022-12-08T06:38:45;1.70;99.90
5850;DHT22;2951;47.712;9.400;2022-12-08T06:41:12;1.70;99.90
5850;DHT22;2951;47.712;9.400;2022-12-08T06:43:39;1.80;99.90
5850;DHT22;2951;47.712;9.400;2022-12-08T06:46:07;1.70;99.90
5850;DHT22;2951;47.712;9.400;2022-12-08T06:48:34;1.70;99.90
5850;DHT22;2951;47.712;9.400;2022-12-08T06:51:07;1.60;99.90
5850;DHT22;2951;47.712;9.400;2022-12-08T06:53:34;1.60;99.90
5850;DHT22;2951;47.712;9.400;2022-12-08T06:56:01;1.50;99.90
5850;DHT22;2951;47.712;9.400;2022-12-08T06:58:28;1.50;99.90
5850;DHT22;2951;47.712;9.400;2022-12-08T07:00:54;1.60;99.90
5850;DHT22;2951;47.712;9.400;2022-12-08T07:03:21;1.60;99.90
5850;DHT22;2951;47.712;9.400;2022-12-08T07:05:48;1.70;99.90
5850;DHT22;2951;47.712;9.400;2022-12-08T07:08:14;1.60;99.90
5850;DHT22;2951;47.712;9.400;2022-12-08T07:10:42;1.70;99.90
5850;DHT22;2951;47.712;9.400;2022-12-08T07:13:08;1.60;99.90
5850;DHT22;2951;47.712;9.400;2022-12-08T07:15:35;1.70;99.90
5850;DHT22;2951;47.712;9.400;2022-12-08T07:18:02;1.70;99.90
5850;DHT22;2951;47.712;9.400;2022-12-08T07:20:28;1.80;99.90
5850;DHT22;2951;47.712;9.400;2022-12-08T07:22:55;1.80;99.90
5850;DHT22;2951;47.712;9.400;2022-12-08T07:25:22;1.90;99.90
5850;DHT22;2951;47.712;9.400;2022-12-08T07:27:48;1.90;99.90
5850;DHT22;2951;47.712;9.400;2022-12-08T07:30:17;1.90;99.90
5850;DHT22;2951;47.712;9.400;2022-12-08T07:32:43;1.90;99.90
5850;DHT22;2951;47.712;9.400;2022-12-08T07:35:10;1.90;99.90
5850;DHT22;2951;47.712;9.400;2022-12-08T07:37:37;1.90;99.90
5850;DHT22;2951;47.712;9.400;2022-12-08T07:40:04;2.00;99.90
5850;DHT22;2951;47.712;9.400;2022-12-08T07:42:31;2.00;99.90
5850;DHT22;2951;47.712;9.400;2022-12-08T07:44:58;2.10;99.90
5850;DHT22;2951;47.712;9.400;2022-12-08T07:47:26;2.10;99.90
5850;DHT22;2951;47.712;9.400;2022-12-08T07:49:52;2.10;99.90
5850;DHT22;2951;47.712;9.400;2022-12-08T07:52:19;2.20;99.90
5850;DHT22;2951;47.712;9.400;2022-12-08T07:54:46;2.20;99.90
5850;DHT22;2951;47.712;9.400;2022-12-08T07:57:12;2.30;99.90
5850;DHT22;2951;47.712;9.400;2022-12-08T07:59:39;2.30;99.90
5850;DHT22;2951;47.712;9.400;2022-12-08T08:02:10;2.40;99.90
5850;DHT22;2951;47.712;9.400;2022-12-08T08:04:50;2.40;99.90
5850;DHT22;2951;47.712;9.400;2022-12-08T08:07:16;2.40;99.90
5850;DHT22;2951;47.712;9.400;2022-12-08T08:09:43;2.40;99.90
5850;DHT22;2951;47.712;9.400;2022-12-08T08:12:11;2.50;99.90
5850;DHT22;2951;47.712;9.400;2022-12-08T08:14:58;2.50;99.90
5850;DHT22;2951;47.712;9.400;2022-12-08T08:17:25;2.60;99.90
5850;DHT22;2951;47.712;9.400;2022-12-08T08:19:51;2.60;99.90
5850;DHT22;2951;47.712;9.400;2022-12-08T08:22:18;2.70;99.90
5850;DHT22;2951;47.712;9.400;2022-12-08T08:24:45;2.60;99.90
5850;DHT22;2951;47.712;9.400;2022-12-08T08:27:11;2.60;99.90
5850;DHT22;2951;47.712;9.400;2022-12-08T08:29:39;2.60;99.90
5850;DHT22;2951;47.712;9.400;2022-12-08T08:32:05;2.70;99.90
5850;DHT22;2951;47.712;9.400;2022-12-08T08:34:32;2.60;99.90
5850;DHT22;2951;47.712;9.400;2022-12-08T08:36:59;2.60;99.90
5850;DHT22;2951;47.712;9.400;2022-12-08T08:39:25;2.60;99.90
5850;DHT22;2951;47.712;9.400;2022-12-08T08:41:52;2.70;99.90
5850;DHT22;2951;47.712;9.400;2022-12-08T08:44:19;2.70;99.90
5850;DHT22;2951;47.712;9.400;2022-12-08T08:46:45;2.70;99.90
5850;DHT22;2951;47.712;9.400;2022-12-08T08:49:12;2.80;99.90
5850;DHT22;2951;47.712;9.400;2022-12-08T08:51:39;2.90;99.90
5850;DHT22;2951;47.712;9.400;2022-12-08T08:54:05;2.90;99.90
5850;DHT22;2951;47.712;9.400;2022-12-08T08:56:32;2.90;99.90
5850;DHT22;2951;47.712;9.400;2022-12-08T08:58:59;3.00;99.90
5850;DHT22;2951;47.712;9.400;2022-12-08T09:01:26;3.10;99.90
5850;DHT22;2951;47.712;9.400;2022-12-08T09:03:54;3.20;99.90
5850;DHT22;2951;47.712;9.400;2022-12-08T09:06:20;3.20;99.90
5850;DHT22;2951;47.712;9.400;2022-12-08T09:08:47;3.30;99.90
5850;DHT22;2951;47.712;9.400;2022-12-08T09:11:14;3.30;99.90
5850;DHT22;2951;47.712;9.400;2022-12-08T09:13:41;3.40;99.90
5850;DHT22;2951;47.712;9.400;2022-12-08T09:16:08;3.50;99.90
5850;DHT22;2951;47.712;9.400;2022-12-08T09:18:35;3.50;99.90
5850;DHT22;2951;47.712;9.400;2022-12-08T09:21:08;3.40;99.90
5850;DHT22;2951;47.712;9.400;2022-12-08T09:23:36;3.40;99.90
5850;DHT22;2951;47.712;9.400;2022-12-08T09:26:03;3.30;99.90
5850;DHT22;2951;47.712;9.400;2022-12-08T09:28:31;3.30;99.90
5850;DHT22;2951;47.712;9.400;2022-12-08T09:30:58;3.40;99.90
5850;DHT22;2951;47.712;9.400;2022-12-08T09:33:25;3.40;99.90
5850;DHT22;2951;47.712;9.400;2022-12-08T09:35:51;3.50;99.90
5850;DHT22;2951;47.712;9.400;2022-12-08T09:38:18;3.60;99.90
5850;DHT22;2951;47.712;9.400;2022-12-08T09:40:49;3.50;99.90
5850;DHT22;2951;47.712;9.400;2022-12-08T09:43:41;3.40;99.90
5850;DHT22;2951;47.712;9.400;2022-12-08T09:46:06;3.50;99.90
5850;DHT22;2951;47.712;9.400;2022-12-08T09:48:34;3.40;99.90
5850;DHT22;2951;47.712;9.400;2022-12-08T09:51:02;3.30;99.90
5850;DHT22;2951;47.712;9.400;2022-12-08T09:53:47;3.30;99.90
5850;DHT22;2951;47.712;9.400;2022-12-08T09:56:17;3.50;99.90
5850;DHT22;2951;47.712;9.400;2022-12-08T09:59:04;3.60;99.90
5850;DHT22;2951;47.712;9.400;2022-12-08T10:01:32;3.50;99.90
5850;DHT22;2951;47.712;9.400;2022-12-08T10:03:59;3.60;99.90
5850;DHT22;2951;47.712;9.400;2022-12-08T10:06:31;3.70;99.90
5850;DHT22;2951;47.712;9.400;2022-12-08T10:11:36;3.80;99.90
5850;DHT22;2951;47.712;9.400;2022-12-08T10:14:20;3.90;99.90
5850;DHT22;2951;47.712;9.400;2022-12-08T10:16:49;4.10;99.90
5850;DHT22;2951;47.712;9.400;2022-12-08T10:19:21;4.00;99.90
5850;DHT22;2951;47.712;9.400;2022-12-08T10:21:49;4.10;99.90
5850;DHT22;2951;47.712;9.400;2022-12-08T10:26:48;3.90;99.90
5850;DHT22;2951;47.712;9.400;2022-12-08T10:29:15;3.90;99.90
5850;DHT22;2951;47.712;9.400;2022-12-08T10:31:42;3.90;99.90
5850;DHT22;2951;47.712;9.400;2022-12-08T10:34:13;4.00;99.90
5850;DHT22;2951;47.712;9.400;2022-12-08T10:36:50;4.00;99.90
5850;DHT22;2951;47.712;9.400;2022-12-08T10:42:07;3.90;99.90
5850;DHT22;2951;47.712;9.400;2022-12-08T10:44:37;4.10;99.90
5850;DHT22;2951;47.712;9.400;2022-12-08T10:47:13;4.20;99.90
5850;DHT22;2951;47.712;9.400;2022-12-08T10:49:39;4.40;99.90
5850;DHT22;2951;47.712;9.400;2022-12-08T10:52:08;4.50;99.90
5850;DHT22;2951;47.712;9.400;2022-12-08T10:54:35;4.40;99.90
5850;DHT22;2951;47.712;9.400;2022-12-08T10:57:08;4.30;99.90
5850;DHT22;2951;47.712;9.400;2022-12-08T10:59:45;4.40;99.90
5850;DHT22;2951;47.712;9.400;2022-12-08T11:02:17;4.30;99.90
5850;DHT22;2951;47.712;9.400;2022-12-08T11:04:44;4.30;99.90
5850;DHT22;2951;47.712;9.400;2022-12-08T11:07:18;4.20;99.90
5850;DHT22;2951;47.712;9.400;2022-12-08T11:09:46;4.20;99.90
5850;DHT22;2951;47.712;9.400;2022-12-08T11:12:14;4.20;99.90
5850;DHT22;2951;47.712;9.400;2022-12-08T11:17:09;4.30;99.90
5850;DHT22;2951;47.712;9.400;2022-12-08T11:19:41;4.40;99.90
5850;DHT22;2951;47.712;9.400;2022-12-08T11:22:26;4.30;99.90
5850;DHT22;2951;47.712;9.400;2022-12-08T11:25:09;4.20;99.90
5850;DHT22;2951;47.712;9.400;2022-12-08T11:27:37;4.10;99.90
5850;DHT22;2951;47.712;9.400;2022-12-08T11:32:51;4.10;99.90
5850;DHT22;2951;47.712;9.400;2022-12-08T11:35:23;4.20;99.90
5850;DHT22;2951;47.712;9.400;2022-12-08T11:37:52;4.10;99.90
5850;DHT22;2951;47.712;9.400;2022-12-08T11:40:34;4.10;99.90
5850;DHT22;2951;47.712;9.400;2022-12-08T11:43:13;4.10;99.90
5850;DHT22;2951;47.712;9.400;2022-12-08T11:45:41;4.20;99.90
5850;DHT22;2951;47.712;9.400;2022-12-08T11:50:58;4.30;99.90
5850;DHT22;2951;47.712;9.400;2022-12-08T11:53:26;4.30;99.90
5850;DHT22;2951;47.712;9.400;2022-12-08T11:55:59;4.30;99.90
5850;DHT22;2951;47.712;9.400;2022-12-08T11:58:40;4.40;99.90
5850;DHT22;2951;47.712;9.400;2022-12-08T12:01:15;4.30;99.90
5850;DHT22;2951;47.712;9.400;2022-12-08T12:03:44;4.30;99.90
5850;DHT22;2951;47.712;9.400;2022-12-08T12:06:17;4.40;99.90
5850;DHT22;2951;47.712;9.400;2022-12-08T12:09:16;4.50;99.90
5850;DHT22;2951;47.712;9.400;2022-12-08T12:17:24;4.50;99.90
5850;DHT22;2951;47.712;9.400;2022-12-08T12:19:57;4.20;99.90
5850;DHT22;2951;47.712;9.400;2022-12-08T12:22:24;4.30;99.90
5850;DHT22;2951;47.712;9.400;2022-12-08T12:24:54;4.30;99.90
5850;DHT22;2951;47.712;9.400;2022-12-08T12:27:28;4.40;99.90
5850;DHT22;2951;47.712;9.400;2022-12-08T12:29:59;4.30;99.90
5850;DHT22;2951;47.712;9.400;2022-12-08T12:32:39;4.30;99.90
5850;DHT22;2951;47.712;9.400;2022-12-08T12:35:11;4.20;99.90
5850;DHT22;2951;47.712;9.400;2022-12-08T12:37:40;4.30;99.90
5850;DHT22;2951;47.712;9.400;2022-12-08T12:40:15;4.50;99.90
5850;DHT22;2951;47.712;9.400;2022-12-08T12:42:44;4.60;99.90
5850;DHT22;2951;47.712;9.400;2022-12-08T12:53:02;4.40;99.90
5850;DHT22;2951;47.712;9.400;2022-12-08T12:58:18;4.50;99.90
5850;DHT22;2951;47.712;9.400;2022-12-08T13:00:45;4.70;99.90
5850;DHT22;2951;47.712;9.400;2022-12-08T13:03:15;4.70;99.90
5850;DHT22;2951;47.712;9.400;2022-12-08T13:05:49;4.70;99.90
5850;DHT22;2951;47.712;9.400;2022-12-08T13:08:18;4.70;99.90
5850;DHT22;2951;47.712;9.400;2022-12-08T13:10:54;4.60;99.90
5850;DHT22;2951;47.712;9.400;2022-12-08T13:13:22;4.80;99.90
5850;DHT22;2951;47.712;9.400;2022-12-08T13:15:53;4.80;99.90
5850;DHT22;2951;47.712;9.400;2022-12-08T13:18:34;4.90;99.90
5850;DHT22;2951;47.712;9.400;2022-12-08T13:26:08;4.80;99.90
5850;DHT22;2951;47.712;9.400;2022-12-08T13:29:02;4.60;99.90
5850;DHT22;2951;47.712;9.400;2022-12-08T13:34:03;4.50;99.90
5850;DHT22;2951;47.712;9.400;2022-12-08T13:36:31;4.50;99.90
5850;DHT22;2951;47.712;9.400;2022-12-08T13:38:59;4.50;99.90
5850;DHT22;2951;47.712;9.400;2022-12-08T13:41:43;4.40;99.90
5850;DHT22;2951;47.712;9.400;2022-12-08T13:44:13;4.40;99.90
5850;DHT22;2951;47.712;9.400;2022-12-08T13:47:05;4.50;99.90
5850;DHT22;2951;47.712;9.400;2022-12-08T13:50:00;4.30;99.90
5850;DHT22;2951;47.712;9.400;2022-12-08T13:52:55;4.40;99.90
5850;DHT22;2951;47.712;9.400;2022-12-08T13:55:45;4.10;99.90
5850;DHT22;2951;47.712;9.400;2022-12-08T13:58:33;4.10;99.90
5850;DHT22;2951;47.712;9.400;2022-12-08T14:01:14;4.10;99.90
5850;DHT22;2951;47.712;9.400;2022-12-08T14:03:44;4.20;99.90
5850;DHT22;2951;47.712;9.400;2022-12-08T14:06:35;4.20;99.90
5850;DHT22;2951;47.712;9.400;2022-12-08T14:09:09;4.20;99.90
5850;DHT22;2951;47.712;9.400;2022-12-08T14:11:38;4.20;99.90
5850;DHT22;2951;47.712;9.400;2022-12-08T14:17:06;4.30;99.90
5850;DHT22;2951;47.712;9.400;2022-12-08T14:19:33;4.30;99.90
5850;DHT22;2951;47.712;9.400;2022-12-08T14:22:01;4.20;99.90
5850;DHT22;2951;47.712;9.400;2022-12-08T14:24:29;4.20;99.90
5850;DHT22;2951;47.712;9.400;2022-12-08T14:27:00;4.30;99.90
5850;DHT22;2951;47.712;9.400;2022-12-08T14:29:40;4.20;99.90
5850;DHT22;2951;47.712;9.400;2022-12-08T14:34:51;4.00;99.90
5850;DHT22;2951;47.712;9.400;2022-12-08T14:37:19;3.90;99.90
5850;DHT22;2951;47.712;9.400;2022-12-08T14:39:46;3.80;99.90
5850;DHT22;2951;47.712;9.400;2022-12-08T14:42:20;3.80;99.90
5850;DHT22;2951;47.712;9.400;2022-12-08T14:44:49;3.80;99.90
5850;DHT22;2951;47.712;9.400;2022-12-08T14:47:20;3.70;99.90
5850;DHT22;2951;47.712;9.400;2022-12-08T14:49:47;3.70;99.90
5850;DHT22;2951;47.712;9.400;2022-12-08T14:52:14;3.70;99.90
5850;DHT22;2951;47.712;9.400;2022-12-08T14:54:40;3.70;99.90
5850;DHT22;2951;47.712;9.400;2022-12-08T14:57:09;3.60;99.90
5850;DHT22;2951;47.712;9.400;2022-12-08T14:59:37;3.60;99.90
5850;DHT22;2951;47.712;9.400;2022-12-08T15:07:26;3.60;99.90
5850;DHT22;2951;47.712;9.400;2022-12-08T15:10:17;3.60;99.90
5850;DHT22;2951;47.712;9.400;2022-12-08T15:12:59;3.70;99.90
5850;DHT22;2951;47.712;9.400;2022-12-08T15:15:27;3.60;99.90
5850;DHT22;2951;47.712;9.400;2022-12-08T15:18:00;3.60;99.90
5850;DHT22;2951;47.712;9.400;2022-12-08T15:23:00;3.60;99.90
5850;DHT22;2951;47.712;9.400;2022-12-08T15:25:27;3.50;99.90
5850;DHT22;2951;47.712;9.400;2022-12-08T15:27:54;3.50;99.90
5850;DHT22;2951;47.712;9.400;2022-12-08T15:30:24;3.50;99.90
5850;DHT22;2951;47.712;9.400;2022-12-08T15:32:54;3.50;99.90
5850;DHT22;2951;47.712;9.400;2022-12-08T15:35:21;3.40;99.90
5850;DHT22;2951;47.712;9.400;2022-12-08T15:37:48;3.40;99.90
5850;DHT22;2951;47.712;9.400;2022-12-08T15:40:16;3.40;99.90
5850;DHT22;2951;47.712;9.400;2022-12-08T15:42:43;3.40;99.90
5850;DHT22;2951;47.712;9.400;2022-12-08T15:45:11;3.40;99.90
5850;DHT22;2951;47.712;9.400;2022-12-08T15:47:39;3.40;99.90
5850;DHT22;2951;47.712;9.400;2022-12-08T15:50:09;3.40;99.90
5850;DHT22;2951;47.712;9.400;2022-12-08T15:52:39;3.30;99.90
5850;DHT22;2951;47.712;9.400;2022-12-08T15:55:06;3.30;99.90
5850;DHT22;2951;47.712;9.400;2022-12-08T15:57:32;3.30;99.90
5850;DHT22;2951;47.712;9.400;2022-12-08T16:03:46;3.30;99.90
5850;DHT22;2951;47.712;9.400;2022-12-08T16:06:25;3.30;99.90
5850;DHT22;2951;47.712;9.400;2022-12-08T16:09:19;3.20;99.90
5850;DHT22;2951;47.712;9.400;2022-12-08T16:11:47;3.30;99.90
5850;DHT22;2951;47.712;9.400;2022-12-08T16:14:34;3.30;99.90
5850;DHT22;2951;47.712;9.400;2022-12-08T16:17:21;3.30;99.90
5850;DHT22;2951;47.712;9.400;2022-12-08T16:19:48;3.30;99.90
5850;DHT22;2951;47.712;9.400;2022-12-08T16:22:21;3.30;99.90
5850;DHT22;2951;47.712;9.400;2022-12-08T16:25:10;3.30;99.90
5850;DHT22;2951;47.712;9.400;2022-12-08T16:27:44;3.30;99.90
5850;DHT22;2951;47.712;9.400;2022-12-08T16:30:31;3.40;99.90
5850;DHT22;2951;47.712;9.400;2022-12-08T16:32:57;3.40;99.90
5850;DHT22;2951;47.712;9.400;2022-12-08T16:35:24;3.40;99.90
5850;DHT22;2951;47.712;9.400;2022-12-08T16:37:51;3.40;99.90
5850;DHT22;2951;47.712;9.400;2022-12-08T16:40:17;3.30;99.90
5850;DHT22;2951;47.712;9.400;2022-12-08T16:42:44;3.30;99.90
5850;DHT22;2951;47.712;9.400;2022-12-08T16:47:40;3.20;99.90
5850;DHT22;2951;47.712;9.400;2022-12-08T16:50:09;3.20;99.90
5850;DHT22;2951;47.712;9.400;2022-12-08T16:52:36;3.10;99.90
5850;DHT22;2951;47.712;9.400;2022-12-08T16:55:06;3.10;99.90
5850;DHT22;2951;47.712;9.400;2022-12-08T16:57:33;3.10;99.90
5850;DHT22;2951;47.712;9.400;2022-12-08T17:00:00;3.00;99.90
5850;DHT22;2951;47.712;9.400;2022-12-08T17:02:26;3.00;99.90
5850;DHT22;2951;47.712;9.400;2022-12-08T17:04:53;2.80;99.90
5850;DHT22;2951;47.712;9.400;2022-12-08T17:07:20;2.70;99.90
5850;DHT22;2951;47.712;9.400;2022-12-08T17:09:46;2.80;99.90
5850;DHT22;2951;47.712;9.400;2022-12-08T17:12:13;2.80;99.90
5850;DHT22;2951;47.712;9.400;2022-12-08T17:14:40;2.70;99.90
5850;DHT22;2951;47.712;9.400;2022-12-08T17:17:07;2.80;99.90
5850;DHT22;2951;47.712;9.400;2022-12-08T17:19:33;2.70;99.90
5850;DHT22;2951;47.712;9.400;2022-12-08T17:22:00;2.60;99.90
5850;DHT22;2951;47.712;9.400;2022-12-08T17:24:28;2.60;99.90
5850;DHT22;2951;47.712;9.400;2022-12-08T17:26:58;2.60;99.90
5850;DHT22;2951;47.712;9.400;2022-12-08T17:29:30;2.60;99.90
5850;DHT22;2951;47.712;9.400;2022-12-08T17:31:57;2.50;99.90
5850;DHT22;2951;47.712;9.400;2022-12-08T17:34:24;2.40;99.90
5850;DHT22;2951;47.712;9.400;2022-12-08T17:36:50;2.30;99.90
5850;DHT22;2951;47.712;9.400;2022-12-08T17:39:17;2.10;99.90
5850;DHT22;2951;47.712;9.400;2022-12-08T17:41:45;2.00;99.90
5850;DHT22;2951;47.712;9.400;2022-12-08T17:44:12;2.00;99.90
5850;DHT22;2951;47.712;9.400;2022-12-08T17:46:39;1.80;99.90
5850;DHT22;2951;47.712;9.400;2022-12-08T17:49:42;1.80;99.90
5850;DHT22;2951;47.712;9.400;2022-12-08T17:52:03;1.70;99.90
5850;DHT22;2951;47.712;9.400;2022-12-08T17:54:30;1.60;99.90
5850;DHT22;2951;47.712;9.400;2022-12-08T17:56:57;1.60;99.90
5850;DHT22;2951;47.712;9.400;2022-12-08T17:59:24;1.60;99.90
5850;DHT22;2951;47.712;9.400;2022-12-08T18:01:52;1.60;99.90
5850;DHT22;2951;47.712;9.400;2022-12-08T18:04:19;1.50;99.90
5850;DHT22;2951;47.712;9.400;2022-12-08T18:06:46;1.50;99.90
5850;DHT22;2951;47.712;9.400;2022-12-08T18:09:13;1.50;99.90